sensor_id;sensor_type;location;lat;lon;timestamp;P1;durP1;ratioP1;P2;durP2;ratioP2
18933;SDS011;9599;53.706;10.384;2023-03-01T00:01:32;7.33;;;5.17;;
18933;SDS011;9599;53.706;10.384;2023-03-01T00:04:01;8.57;;;5.23;;
18933;SDS011;9599;53.706;10.384;2023-03-01T00:06:29;6.67;;;4.80;;
18933;SDS011;9599;53.706;10.384;2023-03-01T00:08:57;7.13;;;4.83;;
18933;SDS011;9599;53.706;10.384;2023-03-01T00:11:25;7.00;;;4.93;;
18933;SDS011;9599;53.706;10.384;2023-03-01T00:13:57;7.57;;;5.43;;
18933;SDS011;9599;53.706;10.384;2023-03-01T00:16:27;8.93;;;5.50;;
18933;SDS011;9599;53.706;10.384;2023-03-01T00:18:58;8.93;;;5.40;;
18933;SDS011;9599;53.706;10.384;2023-03-01T00:21:26;7.47;;;5.80;;
18933;SDS011;9599;53.706;10.384;2023-03-01T00:23:54;9.53;;;5.77;;
18933;SDS011;9599;53.706;10.384;2023-03-01T00:26:23;11.70;;;5.97;;
18933;SDS011;9599;53.706;10.384;2023-03-01T00:28:52;10.67;;;6.20;;
18933;SDS011;9599;53.706;10.384;2023-03-01T00:31:24;10.30;;;6.30;;
18933;SDS011;9599;53.706;10.384;2023-03-01T00:33:53;8.87;;;6.13;;
18933;SDS011;9599;53.706;10.384;2023-03-01T00:36:23;10.73;;;6.23;;
18933;SDS011;9599;53.706;10.384;2023-03-01T00:38:52;9.43;;;6.03;;
18933;SDS011;9599;53.706;10.384;2023-03-01T00:41:20;8.60;;;5.97;;
18933;SDS011;9599;53.706;10.384;2023-03-01T00:43:49;9.17;;;6.07;;
18933;SDS011;9599;53.706;10.384;2023-03-01T00:46:18;9.20;;;5.87;;
18933;SDS011;9599;53.706;10.384;2023-03-01T00:48:49;9.90;;;5.90;;
18933;SDS011;9599;53.706;10.384;2023-03-01T00:51:18;11.20;;;6.60;;
18933;SDS011;9599;53.706;10.384;2023-03-01T00:53:49;11.17;;;6.33;;
18933;SDS011;9599;53.706;10.384;2023-03-01T00:56:18;9.27;;;6.07;;
18933;SDS011;9599;53.706;10.384;2023-03-01T00:58:46;9.67;;;5.87;;
18933;SDS011;9599;53.706;10.384;2023-03-01T01:01:15;9.37;;;6.00;;
18933;SDS011;9599;53.706;10.384;2023-03-01T01:03:46;9.80;;;6.37;;
18933;SDS011;9599;53.706;10.384;2023-03-01T01:06:17;11.47;;;7.13;;
18933;SDS011;9599;53.706;10.384;2023-03-01T01:08:46;13.30;;;6.93;;
18933;SDS011;9599;53.706;10.384;2023-03-01T01:11:15;10.00;;;6.83;;
18933;SDS011;9599;53.706;10.384;2023-03-01T01:13:44;10.77;;;6.90;;
18933;SDS011;9599;53.706;10.384;2023-03-01T01:16:13;11.63;;;6.80;;
18933;SDS011;9599;53.706;10.384;2023-03-01T01:18:42;11.27;;;7.33;;
18933;SDS011;9599;53.706;10.384;2023-03-01T01:21:11;11.73;;;7.10;;
18933;SDS011;9599;53.706;10.384;2023-03-01T01:23:42;9.77;;;6.53;;
18933;SDS011;9599;53.706;10.384;2023-03-01T01:26:12;9.30;;;6.47;;
18933;SDS011;9599;53.706;10.384;2023-03-01T01:28:41;11.43;;;6.00;;
18933;SDS011;9599;53.706;10.384;2023-03-01T01:31:10;9.70;;;5.67;;
18933;SDS011;9599;53.706;10.384;2023-03-01T01:33:38;9.87;;;6.40;;
18933;SDS011;9599;53.706;10.384;2023-03-01T01:36:06;10.20;;;6.20;;
18933;SDS011;9599;53.706;10.384;2023-03-01T01:38:35;10.77;;;6.30;;
18933;SDS011;9599;53.706;10.384;2023-03-01T01:41:06;11.53;;;6.57;;
18933;SDS011;9599;53.706;10.384;2023-03-01T01:43:36;8.50;;;5.90;;
18933;SDS011;9599;53.706;10.384;2023-03-01T01:46:10;9.80;;;5.97;;
18933;SDS011;9599;53.706;10.384;2023-03-01T01:48:46;10.07;;;5.97;;
18933;SDS011;9599;53.706;10.384;2023-03-01T01:51:17;9.87;;;6.30;;
18933;SDS011;9599;53.706;10.384;2023-03-01T01:53:47;8.83;;;6.07;;
18933;SDS011;9599;53.706;10.384;2023-03-01T01:56:19;10.03;;;6.03;;
18933;SDS011;9599;53.706;10.384;2023-03-01T01:58:48;9.97;;;6.00;;
18933;SDS011;9599;53.706;10.384;2023-03-01T02:01:17;9.37;;;6.10;;
18933;SDS011;9599;53.706;10.384;2023-03-01T02:03:45;9.77;;;5.80;;
18933;SDS011;9599;53.706;10.384;2023-03-01T02:06:17;10.73;;;5.80;;
18933;SDS011;9599;53.706;10.384;2023-03-01T02:08:49;10.43;;;6.27;;
18933;SDS011;9599;53.706;10.384;2023-03-01T02:11:21;10.00;;;5.97;;
18933;SDS011;9599;53.706;10.384;2023-03-01T02:13:49;10.83;;;6.43;;
18933;SDS011;9599;53.706;10.384;2023-03-01T02:16:17;8.83;;;6.20;;
18933;SDS011;9599;53.706;10.384;2023-03-01T02:18:45;9.17;;;5.90;;
18933;SDS011;9599;53.706;10.384;2023-03-01T02:21:20;8.40;;;5.50;;
18933;SDS011;9599;53.706;10.384;2023-03-01T02:23:55;10.07;;;6.07;;
18933;SDS011;9599;53.706;10.384;2023-03-01T02:26:27;9.83;;;6.07;;
18933;SDS011;9599;53.706;10.384;2023-03-01T02:29:02;10.77;;;6.17;;
18933;SDS011;9599;53.706;10.384;2023-03-01T02:31:31;11.87;;;6.20;;
18933;SDS011;9599;53.706;10.384;2023-03-01T02:34:11;8.70;;;6.17;;
18933;SDS011;9599;53.706;10.384;2023-03-01T02:36:43;12.03;;;6.33;;
18933;SDS011;9599;53.706;10.384;2023-03-01T02:39:15;8.90;;;6.27;;
18933;SDS011;9599;53.706;10.384;2023-03-01T02:41:46;9.53;;;6.13;;
18933;SDS011;9599;53.706;10.384;2023-03-01T02:44:18;11.47;;;6.83;;
18933;SDS011;9599;53.706;10.384;2023-03-01T02:46:47;10.70;;;6.40;;
18933;SDS011;9599;53.706;10.384;2023-03-01T02:49:20;10.73;;;6.70;;
18933;SDS011;9599;53.706;10.384;2023-03-01T02:54:48;8.90;;;6.37;;
18933;SDS011;9599;53.706;10.384;2023-03-01T02:57:22;10.83;;;6.43;;
18933;SDS011;9599;53.706;10.384;2023-03-01T02:59:55;9.30;;;6.33;;
18933;SDS011;9599;53.706;10.384;2023-03-01T03:02:25;12.97;;;6.73;;
18933;SDS011;9599;53.706;10.384;2023-03-01T03:05:13;10.07;;;6.47;;
18933;SDS011;9599;53.706;10.384;2023-03-01T03:07:44;11.00;;;6.47;;
18933;SDS011;9599;53.706;10.384;2023-03-01T03:10:14;11.40;;;6.53;;
18933;SDS011;9599;53.706;10.384;2023-03-01T03:12:43;11.80;;;6.73;;
18933;SDS011;9599;53.706;10.384;2023-03-01T03:15:12;10.07;;;6.60;;
18933;SDS011;9599;53.706;10.384;2023-03-01T03:17:40;10.67;;;6.50;;
18933;SDS011;9599;53.706;10.384;2023-03-01T03:20:12;11.60;;;6.70;;
18933;SDS011;9599;53.706;10.384;2023-03-01T03:22:45;10.17;;;6.50;;
18933;SDS011;9599;53.706;10.384;2023-03-01T03:25:13;11.43;;;6.60;;
18933;SDS011;9599;53.706;10.384;2023-03-01T03:27:41;10.50;;;7.03;;
18933;SDS011;9599;53.706;10.384;2023-03-01T03:30:13;10.37;;;6.90;;
18933;SDS011;9599;53.706;10.384;2023-03-01T03:32:43;11.73;;;6.73;;
18933;SDS011;9599;53.706;10.384;2023-03-01T03:35:18;11.50;;;6.70;;
18933;SDS011;9599;53.706;10.384;2023-03-01T03:37:48;12.73;;;7.30;;
18933;SDS011;9599;53.706;10.384;2023-03-01T03:40:33;12.63;;;7.20;;
18933;SDS011;9599;53.706;10.384;2023-03-01T03:43:02;11.37;;;6.97;;
18933;SDS011;9599;53.706;10.384;2023-03-01T03:45:33;10.23;;;6.33;;
18933;SDS011;9599;53.706;10.384;2023-03-01T03:48:02;14.03;;;8.23;;
18933;SDS011;9599;53.706;10.384;2023-03-01T03:50:34;13.63;;;7.73;;
18933;SDS011;9599;53.706;10.384;2023-03-01T03:53:02;12.90;;;7.73;;
18933;SDS011;9599;53.706;10.384;2023-03-01T03:55:32;14.37;;;7.27;;
18933;SDS011;9599;53.706;10.384;2023-03-01T03:58:00;11.97;;;6.87;;
18933;SDS011;9599;53.706;10.384;2023-03-01T04:00:34;13.37;;;7.70;;
18933;SDS011;9599;53.706;10.384;2023-03-01T04:03:03;11.17;;;6.90;;
18933;SDS011;9599;53.706;10.384;2023-03-01T04:05:31;12.17;;;7.30;;
18933;SDS011;9599;53.706;10.384;2023-03-01T04:07:59;12.63;;;7.43;;
18933;SDS011;9599;53.706;10.384;2023-03-01T04:10:33;12.63;;;7.80;;
18933;SDS011;9599;53.706;10.384;2023-03-01T04:13:03;13.50;;;7.90;;
18933;SDS011;9599;53.706;10.384;2023-03-01T04:15:32;12.93;;;7.80;;
18933;SDS011;9599;53.706;10.384;2023-03-01T04:18:02;12.97;;;8.17;;
18933;SDS011;9599;53.706;10.384;2023-03-01T04:20:32;12.67;;;8.00;;
18933;SDS011;9599;53.706;10.384;2023-03-01T04:23:04;14.80;;;7.47;;
18933;SDS011;9599;53.706;10.384;2023-03-01T04:25:39;13.00;;;7.93;;
18933;SDS011;9599;53.706;10.384;2023-03-01T04:28:08;14.47;;;8.37;;
18933;SDS011;9599;53.706;10.384;2023-03-01T04:30:37;13.23;;;7.50;;
18933;SDS011;9599;53.706;10.384;2023-03-01T04:33:09;12.50;;;8.00;;
18933;SDS011;9599;53.706;10.384;2023-03-01T04:35:37;15.17;;;7.73;;
18933;SDS011;9599;53.706;10.384;2023-03-01T04:38:06;15.90;;;8.57;;
18933;SDS011;9599;53.706;10.384;2023-03-01T04:40:35;13.00;;;8.40;;
18933;SDS011;9599;53.706;10.384;2023-03-01T04:43:03;12.63;;;8.13;;
18933;SDS011;9599;53.706;10.384;2023-03-01T04:45:32;14.50;;;8.47;;
18933;SDS011;9599;53.706;10.384;2023-03-01T04:48:01;16.17;;;8.73;;
18933;SDS011;9599;53.706;10.384;2023-03-01T04:50:31;15.47;;;8.27;;
18933;SDS011;9599;53.706;10.384;2023-03-01T04:53:00;15.53;;;8.73;;
18933;SDS011;9599;53.706;10.384;2023-03-01T04:55:28;15.77;;;8.50;;
18933;SDS011;9599;53.706;10.384;2023-03-01T04:57:56;13.63;;;8.27;;
18933;SDS011;9599;53.706;10.384;2023-03-01T05:00:24;13.90;;;8.20;;
18933;SDS011;9599;53.706;10.384;2023-03-01T05:02:53;17.93;;;9.30;;
18933;SDS011;9599;53.706;10.384;2023-03-01T05:05:22;13.57;;;8.50;;
18933;SDS011;9599;53.706;10.384;2023-03-01T05:07:54;12.90;;;8.43;;
18933;SDS011;9599;53.706;10.384;2023-03-01T05:10:24;13.87;;;8.43;;
18933;SDS011;9599;53.706;10.384;2023-03-01T05:12:52;16.10;;;8.73;;
18933;SDS011;9599;53.706;10.384;2023-03-01T05:15:20;15.40;;;8.57;;
18933;SDS011;9599;53.706;10.384;2023-03-01T05:17:51;14.37;;;7.80;;
18933;SDS011;9599;53.706;10.384;2023-03-01T05:20:20;14.50;;;8.83;;
18933;SDS011;9599;53.706;10.384;2023-03-01T05:22:50;13.93;;;8.20;;
18933;SDS011;9599;53.706;10.384;2023-03-01T05:25:20;14.33;;;8.60;;
18933;SDS011;9599;53.706;10.384;2023-03-01T05:27:48;15.27;;;8.70;;
18933;SDS011;9599;53.706;10.384;2023-03-01T05:30:16;15.20;;;8.63;;
18933;SDS011;9599;53.706;10.384;2023-03-01T05:32:45;13.07;;;8.37;;
18933;SDS011;9599;53.706;10.384;2023-03-01T05:35:14;14.50;;;8.70;;
18933;SDS011;9599;53.706;10.384;2023-03-01T05:37:46;14.43;;;8.97;;
18933;SDS011;9599;53.706;10.384;2023-03-01T05:40:15;14.43;;;8.93;;
18933;SDS011;9599;53.706;10.384;2023-03-01T05:42:47;15.23;;;8.53;;
18933;SDS011;9599;53.706;10.384;2023-03-01T05:45:16;16.13;;;9.03;;
18933;SDS011;9599;53.706;10.384;2023-03-01T05:47:45;16.73;;;9.23;;
18933;SDS011;9599;53.706;10.384;2023-03-01T05:50:15;15.03;;;8.30;;
18933;SDS011;9599;53.706;10.384;2023-03-01T05:52:46;13.67;;;8.50;;
18933;SDS011;9599;53.706;10.384;2023-03-01T05:55:15;14.90;;;9.17;;
18933;SDS011;9599;53.706;10.384;2023-03-01T05:57:43;16.50;;;8.50;;
18933;SDS011;9599;53.706;10.384;2023-03-01T06:00:18;13.53;;;8.83;;
18933;SDS011;9599;53.706;10.384;2023-03-01T06:02:48;13.80;;;9.03;;
18933;SDS011;9599;53.706;10.384;2023-03-01T06:05:18;15.63;;;8.90;;
18933;SDS011;9599;53.706;10.384;2023-03-01T06:07:46;14.30;;;9.57;;
18933;SDS011;9599;53.706;10.384;2023-03-01T06:10:14;13.80;;;8.57;;
18933;SDS011;9599;53.706;10.384;2023-03-01T06:12:42;16.47;;;9.57;;
18933;SDS011;9599;53.706;10.384;2023-03-01T06:15:11;15.60;;;9.17;;
18933;SDS011;9599;53.706;10.384;2023-03-01T06:17:42;15.73;;;9.50;;
18933;SDS011;9599;53.706;10.384;2023-03-01T06:20:13;13.87;;;9.13;;
18933;SDS011;9599;53.706;10.384;2023-03-01T06:22:42;16.40;;;9.30;;
18933;SDS011;9599;53.706;10.384;2023-03-01T06:25:11;15.50;;;9.37;;
18933;SDS011;9599;53.706;10.384;2023-03-01T06:27:40;17.63;;;9.43;;
18933;SDS011;9599;53.706;10.384;2023-03-01T06:30:09;17.70;;;9.27;;
18933;SDS011;9599;53.706;10.384;2023-03-01T06:32:41;14.33;;;9.10;;
18933;SDS011;9599;53.706;10.384;2023-03-01T06:35:09;15.80;;;9.10;;
18933;SDS011;9599;53.706;10.384;2023-03-01T06:37:38;14.97;;;9.73;;
18933;SDS011;9599;53.706;10.384;2023-03-01T06:40:07;16.53;;;9.70;;
18933;SDS011;9599;53.706;10.384;2023-03-01T06:42:38;18.27;;;9.90;;
18933;SDS011;9599;53.706;10.384;2023-03-01T06:45:08;17.40;;;10.03;;
18933;SDS011;9599;53.706;10.384;2023-03-01T06:47:36;13.80;;;9.00;;
18933;SDS011;9599;53.706;10.384;2023-03-01T06:50:06;16.17;;;9.40;;
18933;SDS011;9599;53.706;10.384;2023-03-01T06:52:34;16.70;;;9.83;;
18933;SDS011;9599;53.706;10.384;2023-03-01T06:55:02;17.10;;;10.07;;
18933;SDS011;9599;53.706;10.384;2023-03-01T06:57:31;18.67;;;10.57;;
18933;SDS011;9599;53.706;10.384;2023-03-01T06:59:59;17.33;;;10.37;;
18933;SDS011;9599;53.706;10.384;2023-03-01T07:02:27;18.40;;;10.60;;
18933;SDS011;9599;53.706;10.384;2023-03-01T07:04:55;17.10;;;10.17;;
18933;SDS011;9599;53.706;10.384;2023-03-01T07:07:25;18.47;;;10.73;;
18933;SDS011;9599;53.706;10.384;2023-03-01T07:09:53;18.83;;;11.63;;
18933;SDS011;9599;53.706;10.384;2023-03-01T07:12:20;21.57;;;11.90;;
18933;SDS011;9599;53.706;10.384;2023-03-01T07:14:48;22.40;;;12.97;;
18933;SDS011;9599;53.706;10.384;2023-03-01T07:17:16;25.07;;;13.47;;
18933;SDS011;9599;53.706;10.384;2023-03-01T07:19:44;26.60;;;14.20;;
18933;SDS011;9599;53.706;10.384;2023-03-01T07:22:12;23.57;;;13.27;;
18933;SDS011;9599;53.706;10.384;2023-03-01T07:24:41;22.13;;;13.53;;
18933;SDS011;9599;53.706;10.384;2023-03-01T07:27:10;23.93;;;14.33;;
18933;SDS011;9599;53.706;10.384;2023-03-01T07:29:38;25.77;;;15.00;;
18933;SDS011;9599;53.706;10.384;2023-03-01T07:32:06;25.83;;;15.40;;
18933;SDS011;9599;53.706;10.384;2023-03-01T07:34:38;28.83;;;16.47;;
18933;SDS011;9599;53.706;10.384;2023-03-01T07:37:06;26.17;;;15.27;;
18933;SDS011;9599;53.706;10.384;2023-03-01T07:39:34;45.00;;;24.17;;
18933;SDS011;9599;53.706;10.384;2023-03-01T07:42:03;38.70;;;21.87;;
18933;SDS011;9599;53.706;10.384;2023-03-01T07:44:32;39.93;;;23.83;;
18933;SDS011;9599;53.706;10.384;2023-03-01T07:47:00;52.33;;;25.60;;
18933;SDS011;9599;53.706;10.384;2023-03-01T07:49:28;44.20;;;23.90;;
18933;SDS011;9599;53.706;10.384;2023-03-01T07:51:56;39.67;;;22.90;;
18933;SDS011;9599;53.706;10.384;2023-03-01T07:54:24;30.70;;;18.03;;
18933;SDS011;9599;53.706;10.384;2023-03-01T07:56:52;32.63;;;18.67;;
18933;SDS011;9599;53.706;10.384;2023-03-01T07:59:22;37.23;;;19.87;;
18933;SDS011;9599;53.706;10.384;2023-03-01T08:01:55;35.17;;;20.13;;
18933;SDS011;9599;53.706;10.384;2023-03-01T08:04:23;35.37;;;20.80;;
18933;SDS011;9599;53.706;10.384;2023-03-01T08:06:53;35.87;;;21.70;;
18933;SDS011;9599;53.706;10.384;2023-03-01T08:09:21;34.20;;;21.33;;
18933;SDS011;9599;53.706;10.384;2023-03-01T08:11:49;35.37;;;21.50;;
18933;SDS011;9599;53.706;10.384;2023-03-01T08:14:17;35.27;;;21.53;;
18933;SDS011;9599;53.706;10.384;2023-03-01T08:16:46;36.10;;;22.37;;
18933;SDS011;9599;53.706;10.384;2023-03-01T08:19:16;39.30;;;21.30;;
18933;SDS011;9599;53.706;10.384;2023-03-01T08:21:44;39.43;;;22.47;;
18933;SDS011;9599;53.706;10.384;2023-03-01T08:24:12;38.77;;;22.67;;
18933;SDS011;9599;53.706;10.384;2023-03-01T08:26:40;39.63;;;22.80;;
18933;SDS011;9599;53.706;10.384;2023-03-01T08:29:08;37.03;;;22.23;;
18933;SDS011;9599;53.706;10.384;2023-03-01T08:31:37;37.33;;;22.30;;
18933;SDS011;9599;53.706;10.384;2023-03-01T08:34:09;35.53;;;20.80;;
18933;SDS011;9599;53.706;10.384;2023-03-01T08:36:39;34.00;;;20.40;;
18933;SDS011;9599;53.706;10.384;2023-03-01T08:39:08;35.77;;;21.07;;
18933;SDS011;9599;53.706;10.384;2023-03-01T08:41:37;31.00;;;20.30;;
18933;SDS011;9599;53.706;10.384;2023-03-01T08:44:06;31.13;;;19.17;;
18933;SDS011;9599;53.706;10.384;2023-03-01T08:46:35;34.23;;;20.27;;
18933;SDS011;9599;53.706;10.384;2023-03-01T08:49:04;30.87;;;19.30;;
18933;SDS011;9599;53.706;10.384;2023-03-01T08:51:34;30.53;;;19.63;;
18933;SDS011;9599;53.706;10.384;2023-03-01T08:54:03;31.43;;;20.23;;
18933;SDS011;9599;53.706;10.384;2023-03-01T08:56:32;30.53;;;18.80;;
18933;SDS011;9599;53.706;10.384;2023-03-01T08:59:00;29.57;;;19.20;;
18933;SDS011;9599;53.706;10.384;2023-03-01T09:01:28;28.83;;;17.97;;
18933;SDS011;9599;53.706;10.384;2023-03-01T09:03:56;33.43;;;20.07;;
18933;SDS011;9599;53.706;10.384;2023-03-01T09:06:24;28.23;;;19.03;;
18933;SDS011;9599;53.706;10.384;2023-03-01T09:08:53;29.73;;;18.37;;
18933;SDS011;9599;53.706;10.384;2023-03-01T09:11:22;27.83;;;17.80;;
18933;SDS011;9599;53.706;10.384;2023-03-01T09:13:50;29.50;;;18.50;;
18933;SDS011;9599;53.706;10.384;2023-03-01T09:16:18;29.90;;;17.83;;
18933;SDS011;9599;53.706;10.384;2023-03-01T09:18:48;29.67;;;18.33;;
18933;SDS011;9599;53.706;10.384;2023-03-01T09:21:18;30.50;;;18.00;;
18933;SDS011;9599;53.706;10.384;2023-03-01T09:24:05;28.93;;;17.30;;
18933;SDS011;9599;53.706;10.384;2023-03-01T09:26:33;27.23;;;17.50;;
18933;SDS011;9599;53.706;10.384;2023-03-01T09:29:01;27.43;;;18.07;;
18933;SDS011;9599;53.706;10.384;2023-03-01T09:31:29;26.70;;;16.80;;
18933;SDS011;9599;53.706;10.384;2023-03-01T09:33:57;27.87;;;17.47;;
18933;SDS011;9599;53.706;10.384;2023-03-01T09:36:25;30.90;;;18.30;;
18933;SDS011;9599;53.706;10.384;2023-03-01T09:38:53;30.30;;;18.17;;
18933;SDS011;9599;53.706;10.384;2023-03-01T09:41:26;26.63;;;17.23;;
18933;SDS011;9599;53.706;10.384;2023-03-01T09:44:07;29.07;;;17.37;;
18933;SDS011;9599;53.706;10.384;2023-03-01T09:46:42;26.27;;;16.47;;
18933;SDS011;9599;53.706;10.384;2023-03-01T09:49:14;23.80;;;15.80;;
18933;SDS011;9599;53.706;10.384;2023-03-01T09:51:50;27.77;;;16.97;;
18933;SDS011;9599;53.706;10.384;2023-03-01T09:54:23;27.20;;;16.07;;
18933;SDS011;9599;53.706;10.384;2023-03-01T09:57:05;26.57;;;16.10;;
18933;SDS011;9599;53.706;10.384;2023-03-01T09:59:49;27.57;;;16.13;;
18933;SDS011;9599;53.706;10.384;2023-03-01T10:02:32;24.03;;;14.10;;
18933;SDS011;9599;53.706;10.384;2023-03-01T10:05:13;23.60;;;13.83;;
18933;SDS011;9599;53.706;10.384;2023-03-01T10:10:52;19.47;;;12.67;;
18933;SDS011;9599;53.706;10.384;2023-03-01T10:13:23;24.33;;;12.60;;
18933;SDS011;9599;53.706;10.384;2023-03-01T10:15:54;23.27;;;13.10;;
18933;SDS011;9599;53.706;10.384;2023-03-01T10:18:25;20.83;;;13.10;;
18933;SDS011;9599;53.706;10.384;2023-03-01T10:20:56;21.20;;;13.03;;
18933;SDS011;9599;53.706;10.384;2023-03-01T10:23:26;18.90;;;12.70;;
18933;SDS011;9599;53.706;10.384;2023-03-01T10:25:59;19.20;;;12.27;;
18933;SDS011;9599;53.706;10.384;2023-03-01T10:28:47;21.70;;;12.97;;
18933;SDS011;9599;53.706;10.384;2023-03-01T10:31:24;21.67;;;12.97;;
18933;SDS011;9599;53.706;10.384;2023-03-01T10:33:56;21.40;;;13.23;;
18933;SDS011;9599;53.706;10.384;2023-03-01T10:36:25;21.93;;;12.93;;
18933;SDS011;9599;53.706;10.384;2023-03-01T10:38:54;19.97;;;12.77;;
18933;SDS011;9599;53.706;10.384;2023-03-01T10:41:24;20.53;;;12.20;;
18933;SDS011;9599;53.706;10.384;2023-03-01T10:43:55;17.30;;;10.93;;
18933;SDS011;9599;53.706;10.384;2023-03-01T10:46:27;21.27;;;12.70;;
18933;SDS011;9599;53.706;10.384;2023-03-01T10:49:05;23.90;;;13.10;;
18933;SDS011;9599;53.706;10.384;2023-03-01T10:51:44;17.77;;;10.63;;
18933;SDS011;9599;53.706;10.384;2023-03-01T10:54:15;18.57;;;10.57;;
18933;SDS011;9599;53.706;10.384;2023-03-01T10:56:46;14.73;;;9.33;;
18933;SDS011;9599;53.706;10.384;2023-03-01T10:59:24;15.37;;;9.50;;
18933;SDS011;9599;53.706;10.384;2023-03-01T11:02:08;13.57;;;9.23;;
18933;SDS011;9599;53.706;10.384;2023-03-01T11:04:58;14.20;;;8.27;;
18933;SDS011;9599;53.706;10.384;2023-03-01T11:07:29;11.77;;;7.37;;
18933;SDS011;9599;53.706;10.384;2023-03-01T11:09:57;10.03;;;6.50;;
18933;SDS011;9599;53.706;10.384;2023-03-01T11:12:25;9.93;;;6.37;;
18933;SDS011;9599;53.706;10.384;2023-03-01T11:14:57;12.20;;;7.00;;
18933;SDS011;9599;53.706;10.384;2023-03-01T11:17:27;9.87;;;6.40;;
18933;SDS011;9599;53.706;10.384;2023-03-01T11:20:00;11.00;;;6.30;;
18933;SDS011;9599;53.706;10.384;2023-03-01T11:22:32;8.00;;;5.07;;
18933;SDS011;9599;53.706;10.384;2023-03-01T11:25:04;10.43;;;6.27;;
18933;SDS011;9599;53.706;10.384;2023-03-01T11:27:36;10.20;;;5.93;;
18933;SDS011;9599;53.706;10.384;2023-03-01T11:30:15;10.30;;;6.77;;
18933;SDS011;9599;53.706;10.384;2023-03-01T11:32:50;9.23;;;6.07;;
18933;SDS011;9599;53.706;10.384;2023-03-01T11:35:25;10.70;;;6.20;;
18933;SDS011;9599;53.706;10.384;2023-03-01T11:37:59;6.90;;;4.73;;
18933;SDS011;9599;53.706;10.384;2023-03-01T11:40:37;7.20;;;4.60;;
18933;SDS011;9599;53.706;10.384;2023-03-01T11:43:12;9.87;;;6.20;;
18933;SDS011;9599;53.706;10.384;2023-03-01T11:45:51;6.73;;;4.60;;
18933;SDS011;9599;53.706;10.384;2023-03-01T11:48:43;8.60;;;5.50;;
18933;SDS011;9599;53.706;10.384;2023-03-01T11:51:20;9.47;;;6.27;;
18933;SDS011;9599;53.706;10.384;2023-03-01T11:54:04;10.87;;;6.30;;
18933;SDS011;9599;53.706;10.384;2023-03-01T11:56:41;6.77;;;4.90;;
18933;SDS011;9599;53.706;10.384;2023-03-01T12:05:49;9.37;;;6.07;;
18933;SDS011;9599;53.706;10.384;2023-03-01T12:08:34;9.20;;;6.60;;
18933;SDS011;9599;53.706;10.384;2023-03-01T12:11:09;9.20;;;7.00;;
18933;SDS011;9599;53.706;10.384;2023-03-01T12:13:51;10.50;;;6.67;;
18933;SDS011;9599;53.706;10.384;2023-03-01T12:16:44;10.87;;;5.63;;
18933;SDS011;9599;53.706;10.384;2023-03-01T12:19:31;9.73;;;6.20;;
18933;SDS011;9599;53.706;10.384;2023-03-01T12:22:12;8.83;;;5.93;;
18933;SDS011;9599;53.706;10.384;2023-03-01T12:27:50;7.93;;;5.43;;
18933;SDS011;9599;53.706;10.384;2023-03-01T12:30:33;7.87;;;5.47;;
18933;SDS011;9599;53.706;10.384;2023-03-01T12:33:13;7.63;;;5.07;;
18933;SDS011;9599;53.706;10.384;2023-03-01T12:36:06;8.27;;;5.80;;
18933;SDS011;9599;53.706;10.384;2023-03-01T12:38:48;7.20;;;5.50;;
18933;SDS011;9599;53.706;10.384;2023-03-01T12:41:27;7.23;;;4.70;;
18933;SDS011;9599;53.706;10.384;2023-03-01T12:44:13;6.30;;;4.83;;
18933;SDS011;9599;53.706;10.384;2023-03-01T12:46:59;7.13;;;4.53;;
18933;SDS011;9599;53.706;10.384;2023-03-01T12:49:38;6.07;;;4.07;;
18933;SDS011;9599;53.706;10.384;2023-03-01T12:52:10;7.20;;;4.37;;
18933;SDS011;9599;53.706;10.384;2023-03-01T12:54:44;5.17;;;3.50;;
18933;SDS011;9599;53.706;10.384;2023-03-01T12:57:14;6.63;;;4.17;;
18933;SDS011;9599;53.706;10.384;2023-03-01T13:00:00;5.17;;;3.97;;
18933;SDS011;9599;53.706;10.384;2023-03-01T13:02:39;7.07;;;4.23;;
18933;SDS011;9599;53.706;10.384;2023-03-01T13:05:18;6.47;;;4.40;;
18933;SDS011;9599;53.706;10.384;2023-03-01T13:07:53;6.53;;;3.63;;
18933;SDS011;9599;53.706;10.384;2023-03-01T13:10:33;3.97;;;3.10;;
18933;SDS011;9599;53.706;10.384;2023-03-01T13:13:13;3.87;;;2.60;;
18933;SDS011;9599;53.706;10.384;2023-03-01T13:15:47;4.20;;;3.30;;
18933;SDS011;9599;53.706;10.384;2023-03-01T13:18:27;7.13;;;4.27;;
18933;SDS011;9599;53.706;10.384;2023-03-01T13:20:57;7.50;;;4.83;;
18933;SDS011;9599;53.706;10.384;2023-03-01T13:23:28;10.60;;;6.17;;
18933;SDS011;9599;53.706;10.384;2023-03-01T13:26:08;14.37;;;6.67;;
18933;SDS011;9599;53.706;10.384;2023-03-01T13:28:41;10.97;;;7.40;;
18933;SDS011;9599;53.706;10.384;2023-03-01T13:34:39;13.90;;;8.33;;
18933;SDS011;9599;53.706;10.384;2023-03-01T13:37:09;14.27;;;8.83;;
18933;SDS011;9599;53.706;10.384;2023-03-01T13:39:45;12.50;;;7.27;;
18933;SDS011;9599;53.706;10.384;2023-03-01T13:42:37;10.57;;;7.10;;
18933;SDS011;9599;53.706;10.384;2023-03-01T13:45:16;13.17;;;8.43;;
18933;SDS011;9599;53.706;10.384;2023-03-01T13:47:48;13.37;;;7.70;;
18933;SDS011;9599;53.706;10.384;2023-03-01T13:50:21;11.17;;;7.20;;
18933;SDS011;9599;53.706;10.384;2023-03-01T13:52:52;9.73;;;5.97;;
18933;SDS011;9599;53.706;10.384;2023-03-01T13:55:36;8.23;;;5.20;;
18933;SDS011;9599;53.706;10.384;2023-03-01T13:58:13;10.70;;;6.47;;
18933;SDS011;9599;53.706;10.384;2023-03-01T14:00:44;9.57;;;6.40;;
18933;SDS011;9599;53.706;10.384;2023-03-01T14:03:13;7.37;;;5.33;;
18933;SDS011;9599;53.706;10.384;2023-03-01T14:05:43;7.53;;;5.03;;
18933;SDS011;9599;53.706;10.384;2023-03-01T14:08:38;8.03;;;4.67;;
18933;SDS011;9599;53.706;10.384;2023-03-01T14:11:20;7.20;;;5.30;;
18933;SDS011;9599;53.706;10.384;2023-03-01T14:14:12;6.70;;;4.60;;
18933;SDS011;9599;53.706;10.384;2023-03-01T14:16:53;7.07;;;5.10;;
18933;SDS011;9599;53.706;10.384;2023-03-01T14:19:27;6.53;;;4.80;;
18933;SDS011;9599;53.706;10.384;2023-03-01T14:21:59;7.00;;;5.03;;
18933;SDS011;9599;53.706;10.384;2023-03-01T14:24:34;8.87;;;5.00;;
18933;SDS011;9599;53.706;10.384;2023-03-01T14:27:09;7.33;;;5.07;;
18933;SDS011;9599;53.706;10.384;2023-03-01T14:29:40;6.37;;;4.67;;
18933;SDS011;9599;53.706;10.384;2023-03-01T14:32:08;7.80;;;5.00;;
18933;SDS011;9599;53.706;10.384;2023-03-01T14:34:42;7.40;;;5.17;;
18933;SDS011;9599;53.706;10.384;2023-03-01T14:37:16;4.43;;;3.23;;
18933;SDS011;9599;53.706;10.384;2023-03-01T14:39:47;7.03;;;4.67;;
18933;SDS011;9599;53.706;10.384;2023-03-01T14:42:15;7.20;;;4.53;;
18933;SDS011;9599;53.706;10.384;2023-03-01T14:44:46;5.23;;;3.77;;
18933;SDS011;9599;53.706;10.384;2023-03-01T14:47:16;6.40;;;4.23;;
18933;SDS011;9599;53.706;10.384;2023-03-01T14:49:53;5.77;;;3.97;;
18933;SDS011;9599;53.706;10.384;2023-03-01T14:52:28;5.70;;;3.90;;
18933;SDS011;9599;53.706;10.384;2023-03-01T14:55:04;6.17;;;4.60;;
18933;SDS011;9599;53.706;10.384;2023-03-01T14:57:34;5.87;;;3.80;;
18933;SDS011;9599;53.706;10.384;2023-03-01T15:00:03;7.53;;;4.47;;
18933;SDS011;9599;53.706;10.384;2023-03-01T15:02:34;6.03;;;3.80;;
18933;SDS011;9599;53.706;10.384;2023-03-01T15:05:05;5.80;;;3.50;;
18933;SDS011;9599;53.706;10.384;2023-03-01T15:07:35;4.47;;;3.30;;
18933;SDS011;9599;53.706;10.384;2023-03-01T15:10:12;4.90;;;3.60;;
18933;SDS011;9599;53.706;10.384;2023-03-01T15:12:44;4.37;;;3.30;;
18933;SDS011;9599;53.706;10.384;2023-03-01T15:15:34;6.43;;;4.30;;
18933;SDS011;9599;53.706;10.384;2023-03-01T15:18:05;4.17;;;3.10;;
18933;SDS011;9599;53.706;10.384;2023-03-01T15:20:42;7.57;;;4.17;;
18933;SDS011;9599;53.706;10.384;2023-03-01T15:23:17;8.00;;;4.87;;